Time;durP1;ratioP1;P1;durP2;ratioP2;P2;SDS_P1;SDS_P2;PMS_P1;PMS_P2;Temp;Humidity;BMP_temperature;BMP_pressure;BME280_temperature;BME280_humidity;BME280_pressure;Samples;Min_cycle;Max_cycle;Signal;HPM_P1;HPM_P2
2023/12/15 00:01:13;;;;;;;46.03;19.17;;;;;;;5.21;100.00;102841.19;5114069;28;20024;-78
2023/12/15 00:03:38;;;;;;;44.42;20.95;;;;;;;5.18;100.00;102834.28;5096096;28;20143;-79
2023/12/15 00:06:04;;;;;;;39.85;20.08;;;;;;;5.17;100.00;102837.81;5113156;28;20063;-78
2023/12/15 00:08:29;;;;;;;40.60;19.27;;;;;;;5.20;100.00;102844.78;5113387;28;20074;-78
2023/12/15 00:10:55;;;;;;;43.60;20.05;;;;;;;5.21;100.00;102849.13;5095729;28;20031;-78
2023/12/15 00:13:20;;;;;;;42.85;20.05;;;;;;;5.21;100.00;102855.28;5113264;28;20031;-78
2023/12/15 00:15:45;;;;;;;42.80;19.83;;;;;;;5.24;100.00;102867.47;5113752;28;20107;-78
2023/12/15 00:18:11;;;;;;;42.60;20.67;;;;;;;5.24;100.00;102865.72;5113534;28;20343;-78
2023/12/15 00:20:36;;;;;;;47.97;20.73;;;;;;;5.25;100.00;102872.69;5095517;28;20034;-78
2023/12/15 00:23:01;;;;;;;46.85;19.48;;;;;;;5.26;100.00;102879.72;5094683;28;20058;-78
2023/12/15 00:25:27;;;;;;;51.35;21.33;;;;;;;5.29;100.00;102882.25;5113670;28;20112;-78
2023/12/15 00:27:52;;;;;;;39.08;18.48;;;;;;;5.33;100.00;102890.06;5113296;28;20036;-78
2023/12/15 00:30:17;;;;;;;44.30;20.40;;;;;;;5.33;100.00;102883.00;5113162;28;20028;-78
2023/12/15 00:32:44;;;;;;;44.28;20.52;;;;;;;5.33;100.00;102875.09;5113466;28;20019;-78
2023/12/15 00:35:09;;;;;;;44.83;19.30;;;;;;;5.30;100.00;102869.94;5113504;28;20046;-78
2023/12/15 00:37:34;;;;;;;40.85;19.58;;;;;;;5.28;100.00;102874.38;5113136;28;20032;-78
2023/12/15 00:40:00;;;;;;;41.58;19.38;;;;;;;5.27;100.00;102870.88;5113533;28;20062;-79
2023/12/15 00:42:25;;;;;;;37.92;19.70;;;;;;;5.25;100.00;102866.56;5077769;28;20123;-79
2023/12/15 00:44:51;;;;;;;43.08;19.95;;;;;;;5.21;100.00;102865.84;5113396;28;20026;-78
2023/12/15 00:47:16;;;;;;;46.80;19.52;;;;;;;5.19;100.00;102870.28;5112648;28;20027;-76
2023/12/15 00:49:41;;;;;;;43.25;19.17;;;;;;;5.18;100.00;102867.69;5113269;28;20088;-76
2023/12/15 00:52:07;;;;;;;40.35;17.92;;;;;;;5.15;100.00;102873.97;5094676;28;20042;-76
2023/12/15 00:54:33;;;;;;;38.65;19.58;;;;;;;5.16;100.00;102878.31;5112706;28;20027;-76
2023/12/15 00:56:59;;;;;;;37.85;17.98;;;;;;;5.16;100.00;102883.59;5112908;28;20029;-78
2023/12/15 00:59:24;;;;;;;37.92;20.40;;;;;;;5.15;100.00;102889.81;5112606;28;20154;-78
2023/12/15 01:01:49;;;;;;;41.40;18.73;;;;;;;5.15;100.00;102886.28;5112613;28;20106;-78
2023/12/15 01:04:15;;;;;;;54.47;20.92;;;;;;;5.12;100.00;102892.56;5113039;28;20028;-78
2023/12/15 01:06:40;;;;;;;43.20;18.95;;;;;;;5.10;100.00;102899.66;5113041;28;20038;-78
2023/12/15 01:09:06;;;;;;;42.85;18.88;;;;;;;5.08;100.00;102897.06;5094610;28;20088;-78
2023/12/15 01:11:31;;;;;;;43.95;20.05;;;;;;;5.05;100.00;102888.41;5113373;28;20084;-78
2023/12/15 01:13:57;;;;;;;52.05;19.83;;;;;;;5.03;100.00;102891.09;5113003;28;20065;-78
2023/12/15 01:16:22;;;;;;;42.20;20.13;;;;;;;5.02;100.00;102886.72;5112439;28;20020;-79
2023/12/15 01:18:47;;;;;;;59.67;22.83;;;;;;;5.02;100.00;102889.34;5115096;28;20474;-78
2023/12/15 01:21:13;;;;;;;50.70;21.95;;;;;;;5.02;100.00;102893.78;5116563;28;20352;-78
2023/12/15 01:23:38;;;;;;;50.65;23.98;;;;;;;5.00;100.00;102895.59;5116838;28;20452;-78
2023/12/15 01:26:04;;;;;;;51.25;22.60;;;;;;;4.97;100.00;102904.50;5116640;28;20023;-78
2023/12/15 01:28:29;;;;;;;47.80;22.23;;;;;;;4.98;100.00;102908.00;5116989;28;20034;-78
2023/12/15 01:30:55;;;;;;;52.70;23.05;;;;;;;4.96;100.00;102897.50;5116544;28;20367;-78
2023/12/15 01:33:20;;;;;;;47.17;21.63;;;;;;;4.95;100.00;102916.88;5115983;28;20030;-77
2023/12/15 01:35:45;;;;;;;48.00;21.50;;;;;;;4.93;100.00;102908.16;5117323;28;20035;-78
2023/12/15 01:38:11;;;;;;;54.90;22.90;;;;;;;4.92;100.00;102912.53;5116569;28;20030;-77
2023/12/15 01:40:36;;;;;;;54.88;23.60;;;;;;;4.92;100.00;102927.53;5116708;28;20030;-77
2023/12/15 01:43:02;;;;;;;55.45;22.27;;;;;;;4.97;100.00;102932.63;5116973;28;20030;-78
2023/12/15 01:45:27;;;;;;;62.53;24.17;;;;;;;5.01;100.00;102937.75;5098028;28;20038;-78
2023/12/15 01:47:54;;;;;;;52.63;23.13;;;;;;;5.04;100.00;102942.94;5116323;28;20031;-77
2023/12/15 01:50:19;;;;;;;52.78;23.48;;;;;;;5.03;100.00;102935.94;5115938;28;20034;-77
2023/12/15 01:52:45;;;;;;;53.17;22.80;;;;;;;5.00;100.00;102943.97;5115811;28;20016;-77
2023/12/15 01:55:10;;;;;;;50.97;23.13;;;;;;;4.97;100.00;102945.81;5115928;28;20111;-77
2023/12/15 01:57:35;;;;;;;56.00;22.67;;;;;;;4.98;100.00;102952.84;5115765;28;20036;-77
2023/12/15 02:00:06;;;;;;;50.13;20.35;;;;;;;4.97;100.00;102954.63;5116018;28;20023;-77
2023/12/15 02:02:33;;;;;;;44.83;21.35;;;;;;;5.00;100.00;102966.84;5115891;28;20458;-78
2023/12/15 02:04:58;;;;;;;53.08;21.65;;;;;;;5.02;100.00;102970.31;5115915;28;20030;-78
2023/12/15 02:07:24;;;;;;;51.28;21.17;;;;;;;5.05;100.00;102980.75;5115815;28;20027;-78
2023/12/15 02:09:49;;;;;;;50.13;22.08;;;;;;;5.05;100.00;102989.53;5115841;28;20459;-78
2023/12/15 02:12:14;;;;;;;50.70;20.80;;;;;;;5.09;100.00;102992.91;5115749;28;20343;-78
2023/12/15 02:14:43;;;;;;;52.33;20.13;;;;;;;5.09;100.00;102995.56;5115333;28;20107;-78
2023/12/15 02:17:09;;;;;;;54.55;20.92;;;;;;;5.10;100.00;103003.41;5115976;28;20024;-78
2023/12/15 02:19:35;;;;;;;49.15;20.80;;;;;;;5.13;100.00;102999.81;5115722;28;20106;-78
2023/12/15 02:22:00;;;;;;;49.40;19.80;;;;;;;5.15;100.00;103010.31;5115698;28;20157;-77
2023/12/15 02:24:25;;;;;;;50.15;20.20;;;;;;;5.17;100.00;103019.06;5115160;28;20031;-78
2023/12/15 02:26:51;;;;;;;45.08;19.20;;;;;;;5.16;100.00;103012.06;5115200;28;20174;-77
2023/12/15 02:29:16;;;;;;;42.20;17.92;;;;;;;5.16;100.00;103020.84;5113884;28;20102;-77
2023/12/15 02:31:41;;;;;;;43.83;18.50;;;;;;;5.18;100.00;103012.84;5114799;28;20042;-77
2023/12/15 02:34:07;;;;;;;43.80;19.10;;;;;;;5.17;100.00;103017.28;5115482;28;20211;-78
2023/12/15 02:36:32;;;;;;;36.10;16.55;;;;;;;5.17;100.00;103012.00;5114833;28;20436;-78
2023/12/15 02:38:58;;;;;;;45.40;17.75;;;;;;;5.19;100.00;103010.16;5114996;28;20362;-77
2023/12/15 02:41:23;;;;;;;44.17;18.55;;;;;;;5.19;100.00;103012.81;5114731;28;20464;-78
2023/12/15 02:43:49;;;;;;;48.80;17.42;;;;;;;5.19;100.00;103020.72;5115329;28;20120;-77
2023/12/15 02:46:14;;;;;;;46.90;17.00;;;;;;;5.19;100.00;103028.66;5115176;28;20034;-78
2023/12/15 02:48:40;;;;;;;48.50;17.08;;;;;;;5.23;100.00;103034.72;5114862;28;20311;-77
2023/12/15 02:51:06;;;;;;;42.78;17.40;;;;;;;5.23;100.00;103039.97;5115125;28;20383;-77
2023/12/15 02:53:31;;;;;;;42.95;17.80;;;;;;;5.24;100.00;103050.50;5114859;28;20039;-77
2023/12/15 02:55:56;;;;;;;45.08;16.48;;;;;;;5.25;100.00;103038.16;5114459;28;20034;-77
2023/12/15 02:58:22;;;;;;;34.03;14.88;;;;;;;5.26;100.00;103047.81;5114563;28;20023;-77
2023/12/15 03:00:47;;;;;;;41.55;15.48;;;;;;;5.28;100.00;103038.03;5115074;28;20024;-77
2023/12/15 03:03:13;;;;;;;47.28;15.55;;;;;;;5.28;100.00;103049.47;5114508;28;20110;-78
2023/12/15 03:05:38;;;;;;;42.58;14.35;;;;;;;5.29;100.00;103052.97;5114469;28;20398;-78
2023/12/15 03:08:04;;;;;;;32.72;13.60;;;;;;;5.29;100.00;103052.97;5114353;28;20081;-78
2023/12/15 03:10:29;;;;;;;38.10;14.38;;;;;;;5.32;100.00;103055.50;5114652;28;20035;-78
2023/12/15 03:12:54;;;;;;;33.95;14.75;;;;;;;5.33;100.00;103051.09;5114337;28;20020;-77
2023/12/15 03:15:20;;;;;;;31.80;13.25;;;;;;;5.36;100.00;103057.16;5095786;28;20092;-77
2023/12/15 03:17:45;;;;;;;33.80;12.65;;;;;;;5.38;100.00;103051.81;5114069;28;20099;-78
2023/12/15 03:20:10;;;;;;;39.90;13.73;;;;;;;5.40;100.00;103064.03;5114204;28;20055;-77
2023/12/15 03:22:39;;;;;;;40.47;14.32;;;;;;;5.42;100.00;103070.13;5113608;28;20088;-78
2023/12/15 03:25:05;;;;;;;37.55;12.88;;;;;;;5.42;100.00;103075.41;5114034;28;20428;-76
2023/12/15 03:27:31;;;;;;;35.42;12.55;;;;;;;5.44;100.00;103070.09;5113982;28;20118;-77
2023/12/15 03:29:56;;;;;;;37.03;12.20;;;;;;;5.44;100.00;103057.75;5113771;28;20370;-78
2023/12/15 03:32:22;;;;;;;46.45;12.43;;;;;;;5.49;100.00;103062.84;5095693;28;20132;-77
2023/12/15 03:34:47;;;;;;;33.03;12.25;;;;;;;5.51;100.00;103070.72;5113979;28;20352;-78
2023/12/15 03:37:13;;;;;;;34.28;11.82;;;;;;;5.52;100.00;103068.03;5113804;28;20027;-77
2023/12/15 03:39:38;;;;;;;39.83;12.27;;;;;;;5.54;100.00;103081.19;5114208;28;20031;-77
2023/12/15 03:42:06;;;;;;;28.58;11.80;;;;;;;5.55;100.00;103083.78;5113150;28;20458;-77
2023/12/15 03:44:32;;;;;;;43.95;12.32;;;;;;;5.55;100.00;103089.06;5113550;28;20467;-77
2023/12/15 03:46:58;;;;;;;37.80;12.55;;;;;;;5.56;100.00;103082.03;5113385;28;20436;-77
2023/12/15 03:49:23;;;;;;;37.05;11.75;;;;;;;5.58;100.00;103082.81;5113322;28;20038;-77
2023/12/15 03:51:49;;;;;;;38.33;12.18;;;;;;;5.60;100.00;103091.56;5113606;28;20037;-77
2023/12/15 03:54:14;;;;;;;32.78;12.25;;;;;;;5.60;100.00;103089.78;5113414;28;20304;-77
2023/12/15 03:56:39;;;;;;;31.50;11.50;;;;;;;5.61;100.00;103093.28;5113189;28;20340;-78
2023/12/15 03:59:05;;;;;;;34.42;12.45;;;;;;;5.61;100.00;103095.91;5113304;28;20106;-77
2023/12/15 04:01:31;;;;;;;37.40;12.63;;;;;;;5.58;100.00;103094.25;5113306;28;20455;-77
2023/12/15 04:03:57;;;;;;;35.78;11.07;;;;;;;5.58;100.00;103096.03;5113259;28;20031;-77
2023/12/15 04:06:22;;;;;;;43.10;13.27;;;;;;;5.60;100.00;103105.63;5113052;28;20028;-78
2023/12/15 04:08:47;;;;;;;37.20;12.23;;;;;;;5.61;100.00;103115.28;5113232;28;20024;-77
2023/12/15 04:11:16;;;;;;;43.58;12.95;;;;;;;5.63;100.00;103116.09;5077895;28;20196;-77
2023/12/15 04:13:42;;;;;;;40.78;12.63;;;;;;;5.62;100.00;103111.72;5113064;28;20019;-77
2023/12/15 04:16:07;;;;;;;38.95;12.95;;;;;;;5.61;100.00;103112.66;5094705;28;20479;-77
2023/12/15 04:18:33;;;;;;;55.50;12.50;;;;;;;5.61;100.00;103127.63;5112752;28;20031;-77
2023/12/15 04:20:59;;;;;;;42.05;12.48;;;;;;;5.61;100.00;103130.25;5112952;28;20028;-78
2023/12/15 04:23:24;;;;;;;40.60;11.98;;;;;;;5.66;100.00;103125.69;5112751;28;20028;-77
2023/12/15 04:25:50;;;;;;;39.25;11.70;;;;;;;5.69;100.00;103117.66;5112981;28;20039;-77
2023/12/15 04:28:15;;;;;;;42.90;11.10;;;;;;;5.70;100.00;103124.66;5112637;28;20471;-77
2023/12/15 04:30:40;;;;;;;41.88;10.90;;;;;;;5.77;100.00;103126.19;5112843;28;20036;-77
2023/12/15 04:33:06;;;;;;;49.90;11.95;;;;;;;5.83;100.00;103135.69;5113006;28;20027;-78
2023/12/15 04:35:31;;;;;;;44.58;10.90;;;;;;;5.85;100.00;103133.84;5113271;28;20075;-78
2023/12/15 04:37:56;;;;;;;46.60;10.80;;;;;;;5.85;100.00;103123.28;5112748;28;20380;-78
2023/12/15 04:40:22;;;;;;;43.35;10.52;;;;;;;5.83;100.00;103127.75;5112564;28;20107;-77
2023/12/15 04:42:47;;;;;;;40.55;10.38;;;;;;;5.79;100.00;103136.69;5094798;28;20032;-78
2023/12/15 04:45:12;;;;;;;39.28;9.98;;;;;;;5.79;100.00;103142.88;5112715;28;20031;-77
2023/12/15 04:47:38;;;;;;;43.72;11.32;;;;;;;5.80;100.00;103144.56;5112597;28;20080;-77
2023/12/15 04:50:04;;;;;;;31.85;9.90;;;;;;;5.83;100.00;103146.25;5113250;28;20027;-77
2023/12/15 04:52:29;;;;;;;46.75;10.18;;;;;;;5.83;100.00;103152.41;5094386;28;20104;-77
2023/12/15 04:54:54;;;;;;;39.60;10.10;;;;;;;5.84;100.00;103155.91;5116710;28;20496;-78
2023/12/15 04:57:20;;;;;;;39.03;9.93;;;;;;;5.86;100.00;103163.78;5116706;28;20031;-77
2023/12/15 04:59:45;;;;;;;36.92;10.25;;;;;;;5.86;100.00;103161.16;5117244;28;20046;-77
2023/12/15 05:02:10;;;;;;;40.13;9.32;;;;;;;5.87;100.00;103170.78;5116881;28;20040;-77
2023/12/15 05:04:36;;;;;;;44.28;9.50;;;;;;;5.86;100.00;103169.06;5116646;28;20107;-77
2023/12/15 05:07:02;;;;;;;41.60;10.73;;;;;;;5.84;100.00;103163.84;5116905;28;20059;-77
2023/12/15 05:09:28;;;;;;;30.75;8.63;;;;;;;5.82;100.00;103163.91;5116931;28;20151;-77
2023/12/15 05:11:54;;;;;;;40.72;10.48;;;;;;;5.82;100.00;103174.47;5116360;28;20176;-77
2023/12/15 05:14:19;;;;;;;34.42;9.38;;;;;;;5.84;100.00;103177.06;5098470;28;20087;-77
2023/12/15 05:16:44;;;;;;;31.95;9.45;;;;;;;5.85;100.00;103184.03;5116628;28;20028;-77
2023/12/15 05:19:10;;;;;;;40.40;9.18;;;;;;;5.90;100.00;103190.06;5116414;28;20448;-77
2023/12/15 05:21:35;;;;;;;50.33;8.82;;;;;;;5.95;100.00;103185.47;5116526;28;20324;-77
2023/12/15 05:24:01;;;;;;;42.63;9.55;;;;;;;5.97;100.00;103199.53;5115841;28;20474;-77
2023/12/15 05:26:26;;;;;;;46.58;8.13;;;;;;;5.96;100.00;103200.41;5098083;28;20027;-77
2023/12/15 05:28:52;;;;;;;33.33;8.35;;;;;;;5.98;100.00;103195.97;5116576;28;20033;-77
2023/12/15 05:31:18;;;;;;;42.53;8.32;;;;;;;6.07;100.00;103197.44;5116151;28;20034;-77
2023/12/15 05:33:43;;;;;;;55.38;8.93;;;;;;;6.07;100.00;103193.94;5098051;28;20192;-77
2023/12/15 05:36:19;;;;;;;51.50;8.18;;;;;;;6.06;100.00;103194.84;5116658;28;20107;-76
2023/12/15 05:38:47;;;;;;;34.72;7.32;;;;;;;6.04;100.00;103186.13;5116181;28;20084;-77
2023/12/15 05:41:12;;;;;;;32.05;7.28;;;;;;;6.02;100.00;103185.28;5116094;28;20059;-77
2023/12/15 05:43:38;;;;;;;36.75;7.53;;;;;;;6.00;100.00;103180.94;5116192;28;20055;-77
2023/12/15 05:46:03;;;;;;;38.85;6.95;;;;;;;6.00;100.00;103180.06;5115969;28;20020;-77
2023/12/15 05:48:29;;;;;;;42.80;7.20;;;;;;;6.01;100.00;103187.09;5116170;28;20470;-77
2023/12/15 05:50:54;;;;;;;28.70;7.22;;;;;;;6.02;100.00;103194.09;5116343;28;20027;-77
2023/12/15 05:53:19;;;;;;;36.58;7.40;;;;;;;6.03;100.00;103198.50;5115905;28;20035;-78
2023/12/15 05:55:45;;;;;;;33.22;6.57;;;;;;;6.03;100.00;103201.13;5115684;28;20027;-77
2023/12/15 05:58:10;;;;;;;33.40;7.72;;;;;;;6.08;100.00;103208.91;5115893;28;20459;-77
2023/12/15 06:00:36;;;;;;;43.33;7.07;;;;;;;6.13;100.00;103213.09;5115594;28;20368;-78
2023/12/15 06:03:01;;;;;;;36.78;7.30;;;;;;;6.16;100.00;103215.63;5115790;28;20027;-77
2023/12/15 06:05:28;;;;;;;28.35;7.85;;;;;;;6.16;100.00;103215.63;5097253;28;20076;-77
2023/12/15 06:07:53;;;;;;;28.75;6.55;;;;;;;6.16;100.00;103220.91;5116171;28;20055;-75
2023/12/15 06:10:19;;;;;;;26.35;5.90;;;;;;;6.18;100.00;103223.53;5115660;28;20495;-76
2023/12/15 06:12:45;;;;;;;44.83;6.93;;;;;;;6.21;100.00;103228.72;5115361;28;20023;-77
2023/12/15 06:15:10;;;;;;;38.00;6.75;;;;;;;6.25;100.00;103230.31;5115260;28;20080;-77
2023/12/15 06:17:36;;;;;;;42.92;6.90;;;;;;;6.25;100.00;103238.25;5115457;28;20027;-77
2023/12/15 06:20:01;;;;;;;38.03;6.80;;;;;;;6.27;100.00;103244.38;5114903;28;20027;-77
2023/12/15 06:22:27;;;;;;;32.95;6.85;;;;;;;6.28;100.00;103240.78;5115149;28;20133;-76
2023/12/15 06:24:52;;;;;;;38.50;6.78;;;;;;;6.28;100.00;103234.66;5114864;28;20483;-76
2023/12/15 06:27:17;;;;;;;31.40;6.43;;;;;;;6.28;100.00;103234.66;5115133;28;20035;-76
2023/12/15 06:29:42;;;;;;;31.55;6.35;;;;;;;6.28;100.00;103238.13;5115064;28;20367;-76
2023/12/15 06:32:10;;;;;;;39.40;6.60;;;;;;;6.28;100.00;103245.22;5114869;28;20050;-75
2023/12/15 06:34:37;;;;;;;27.38;5.60;;;;;;;6.28;100.00;103246.06;5115256;28;20075;-76
2023/12/15 06:37:03;;;;;;;21.48;5.78;;;;;;;6.28;100.00;103269.88;5114781;28;20443;-76
2023/12/15 06:39:28;;;;;;;36.90;6.03;;;;;;;6.27;100.00;103264.63;5096563;28;20444;-77
2023/12/15 06:41:53;;;;;;;43.38;5.93;;;;;;;6.28;100.00;103263.72;5114685;28;20063;-77
2023/12/15 06:44:19;;;;;;;36.42;5.80;;;;;;;6.32;100.00;103270.66;5115068;28;20047;-77
2023/12/15 06:46:45;;;;;;;32.60;5.90;;;;;;;6.34;100.00;103284.66;5115080;28;20057;-77
2023/12/15 06:49:11;;;;;;;34.22;6.10;;;;;;;6.36;100.00;103288.16;5114445;28;20200;-76
2023/12/15 06:51:36;;;;;;;31.90;5.30;;;;;;;6.37;100.00;103287.22;5096954;28;20023;-76
2023/12/15 06:54:01;;;;;;;31.40;5.97;;;;;;;6.36;100.00;103280.22;5114267;28;20085;-76
2023/12/15 06:56:27;;;;;;;39.67;6.13;;;;;;;6.31;100.00;103285.63;5114949;28;20065;-76
2023/12/15 06:58:52;;;;;;;30.10;5.95;;;;;;;6.34;100.00;103297.91;5114301;28;20027;-76
2023/12/15 07:01:18;;;;;;;27.70;5.43;;;;;;;6.35;100.00;103307.56;5114037;28;20092;-76
2023/12/15 07:03:43;;;;;;;22.90;4.90;;;;;;;6.35;100.00;103313.72;5114433;28;20041;-76
2023/12/15 07:06:09;;;;;;;31.55;5.57;;;;;;;6.35;100.00;103305.78;5114318;28;20055;-77
2023/12/15 07:08:34;;;;;;;33.08;6.20;;;;;;;6.37;100.00;103300.44;5114021;28;20020;-76
2023/12/15 07:11:00;;;;;;;27.88;5.35;;;;;;;6.33;100.00;103294.41;5114163;28;20367;-76
2023/12/15 07:13:25;;;;;;;26.23;4.90;;;;;;;6.33;100.00;103296.19;5095632;28;20023;-76
2023/12/15 07:15:52;;;;;;;26.33;5.13;;;;;;;6.34;100.00;103304.06;5113398;28;20023;-76
2023/12/15 07:18:17;;;;;;;21.10;5.38;;;;;;;6.35;100.00;103303.13;5096141;28;20344;-76
2023/12/15 07:20:43;;;;;;;26.00;4.78;;;;;;;6.35;100.00;103299.63;5113838;28;20049;-75
2023/12/15 07:23:08;;;;;;;35.55;5.25;;;;;;;6.34;100.00;103305.81;5114258;28;20360;-75
2023/12/15 07:25:33;;;;;;;22.00;4.35;;;;;;;6.32;100.00;103305.03;5113571;28;20110;-75
2023/12/15 07:27:59;;;;;;;23.27;5.35;;;;;;;6.31;100.00;103309.44;5112979;28;20024;-77
2023/12/15 07:30:24;;;;;;;22.40;4.53;;;;;;;6.28;100.00;103304.25;5113078;28;20106;-76
2023/12/15 07:32:50;;;;;;;36.13;5.57;;;;;;;6.28;100.00;103308.69;5112937;28;20119;-76
2023/12/15 07:35:15;;;;;;;27.85;5.18;;;;;;;6.28;100.00;103314.81;5113769;28;20050;-77
2023/12/15 07:37:40;;;;;;;24.80;4.57;;;;;;;6.29;100.00;103319.19;5113723;28;20037;-76
2023/12/15 07:40:06;;;;;;;28.13;5.55;;;;;;;6.28;100.00;103312.19;5112202;28;20028;-76
2023/12/15 07:42:32;;;;;;;26.70;5.18;;;;;;;6.30;100.00;103320.94;5113037;28;20023;-75
2023/12/15 07:44:58;;;;;;;25.63;5.18;;;;;;;6.33;100.00;103322.63;5112672;28;20124;-76
2023/12/15 07:47:24;;;;;;;38.72;5.88;;;;;;;6.37;100.00;103328.66;5077213;28;20027;-76
2023/12/15 07:49:49;;;;;;;30.98;5.80;;;;;;;6.34;100.00;103341.09;5094794;28;20023;-75
2023/12/15 07:52:14;;;;;;;27.88;5.97;;;;;;;6.33;100.00;103349.06;5094825;28;20032;-75
2023/12/15 07:54:40;;;;;;;25.33;5.25;;;;;;;6.32;100.00;103358.75;5113008;28;20027;-74
2023/12/15 07:57:05;;;;;;;22.20;4.60;;;;;;;6.29;100.00;103369.44;5112635;28;20098;-75
2023/12/15 07:59:34;;;;;;;30.02;4.80;;;;;;;6.27;100.00;103368.63;5077413;28;20228;-75
2023/12/15 08:02:00;;;;;;;20.70;4.68;;;;;;;6.31;100.00;103374.69;5112683;28;20050;-75
2023/12/15 08:04:25;;;;;;;21.52;3.95;;;;;;;6.34;100.00;103375.47;5112705;28;20419;-77
2023/12/15 08:06:51;;;;;;;26.25;4.40;;;;;;;6.34;100.00;103367.53;5112914;28;20407;-74
2023/12/15 08:09:16;;;;;;;27.10;4.53;;;;;;;6.36;100.00;103383.34;5094454;28;20032;-74
2023/12/15 08:11:41;;;;;;;28.95;5.15;;;;;;;6.39;100.00;103385.00;5112475;28;20032;-75
2023/12/15 08:14:07;;;;;;;14.90;4.22;;;;;;;6.40;100.00;103390.25;5112739;28;20031;-76
2023/12/15 08:16:33;;;;;;;22.45;5.07;;;;;;;6.44;100.00;103389.25;5112416;28;20088;-75
2023/12/15 08:18:59;;;;;;;20.63;3.90;;;;;;;6.45;100.00;103387.44;5112367;28;20047;-75
2023/12/15 08:21:24;;;;;;;26.92;4.55;;;;;;;6.50;100.00;103390.81;5112399;28;20444;-74
2023/12/15 08:23:50;;;;;;;19.70;4.22;;;;;;;6.54;100.00;103400.41;5112820;28;20027;-75
2023/12/15 08:26:20;;;;;;;24.67;4.10;;;;;;;6.61;100.00;103395.75;5112325;28;20110;-76
2023/12/15 08:28:46;;;;;;;16.30;3.83;;;;;;;6.66;100.00;103407.06;5111200;28;20093;-76
2023/12/15 08:31:11;;;;;;;18.85;3.72;;;;;;;6.70;100.00;103411.31;5112275;28;20281;-76
2023/12/15 08:33:37;;;;;;;21.02;5.07;;;;;;;6.68;100.00;103416.66;5094143;28;20443;-76
2023/12/15 08:36:03;;;;;;;22.25;4.30;;;;;;;6.68;100.00;103419.31;5112492;28;20035;-75
2023/12/15 08:38:28;;;;;;;18.33;3.53;;;;;;;6.69;100.00;103420.19;5112580;28;20049;-76
2023/12/15 08:40:54;;;;;;;19.42;4.10;;;;;;;6.68;100.00;103424.59;5112037;28;20058;-75
2023/12/15 08:43:19;;;;;;;13.35;3.25;;;;;;;6.74;100.00;103420.91;5112271;28;20036;-76
2023/12/15 08:45:45;;;;;;;19.08;3.15;;;;;;;6.76;100.00;103424.34;5111939;28;20372;-75
2023/12/15 08:48:10;;;;;;;15.30;3.17;;;;;;;6.82;100.00;103420.63;5111974;28;20027;-76
2023/12/15 08:50:35;;;;;;;25.02;4.13;;;;;;;6.87;100.00;103431.94;5112170;28;20043;-75
2023/12/15 08:53:02;;;;;;;19.45;3.38;;;;;;;6.89;100.00;103435.41;5111882;28;20533;-76
2023/12/15 08:55:27;;;;;;;20.10;3.95;;;;;;;7.00;100.00;103435.03;5111970;28;20107;-77
2023/12/15 08:57:52;;;;;;;17.08;3.30;;;;;;;7.05;100.00;103433.97;5093824;28;20055;-75
2023/12/15 09:00:18;;;;;;;12.80;2.95;;;;;;;7.03;100.00;103429.63;5111920;28;20351;-75
2023/12/15 09:02:43;;;;;;;14.90;3.40;;;;;;;7.02;100.00;103431.41;5111426;28;20401;-75
2023/12/15 09:05:09;;;;;;;14.30;3.40;;;;;;;7.07;100.00;103433.91;5094046;28;20031;-75
2023/12/15 09:07:34;;;;;;;13.55;2.50;;;;;;;7.09;100.00;103439.16;5112177;28;20104;-75
2023/12/15 09:09:59;;;;;;;21.33;3.28;;;;;;;7.14;100.00;103442.53;5112623;28;20031;-75
2023/12/15 09:12:25;;;;;;;16.23;2.97;;;;;;;7.21;100.00;103444.91;5112243;28;20096;-75
2023/12/15 09:14:50;;;;;;;13.88;2.50;;;;;;;7.33;100.00;103467.44;5112125;28;20042;-75
2023/12/15 09:17:16;;;;;;;23.58;4.90;;;;;;;7.41;100.00;103462.72;5076887;28;20027;-75
2023/12/15 09:19:42;;;;;;;16.13;3.40;;;;;;;7.49;100.00;103464.25;5111803;28;20359;-75
2023/12/15 09:22:07;;;;;;;13.80;2.72;;;;;;;7.55;100.00;103474.63;5112014;28;20118;-75
2023/12/15 09:24:33;;;;;;;14.15;2.80;;;;;;;7.57;100.00;103476.31;5111887;28;20158;-75
2023/12/15 09:26:59;;;;;;;16.38;2.80;;;;;;;7.62;100.00;103472.63;5111985;28;20027;-76
2023/12/15 09:29:24;;;;;;;16.02;3.20;;;;;;;7.67;100.00;103473.31;5112178;28;20024;-75
2023/12/15 09:31:50;;;;;;;19.95;3.45;;;;;;;7.70;100.00;103479.38;5111964;28;20039;-75
2023/12/15 09:34:17;;;;;;;21.15;3.38;;;;;;;7.72;100.00;103489.94;5111572;28;20467;-75
2023/12/15 09:36:43;;;;;;;20.73;3.70;;;;;;;7.77;100.00;103493.25;5112421;28;20039;-76
2023/12/15 09:39:08;;;;;;;20.48;3.17;;;;;;;7.82;100.00;103493.09;5113052;28;20077;-77
2023/12/15 09:41:34;;;;;;;16.13;3.17;;;;;;;7.86;100.00;103492.91;5116162;28;20343;-76
2023/12/15 09:43:59;;;;;;;15.38;3.42;;;;;;;7.88;100.00;103495.50;5115929;28;20032;-76
2023/12/15 09:46:25;;;;;;;13.85;2.60;;;;;;;7.95;100.00;103507.63;5115789;28;20035;-76
2023/12/15 09:48:51;;;;;;;12.63;2.83;;;;;;;7.99;100.00;103514.56;5115952;28;20034;-77
2023/12/15 09:51:25;;;;;;;17.27;2.92;;;;;;;8.05;100.00;103513.47;5097836;28;20032;-78
2023/12/15 09:53:51;;;;;;;19.20;3.45;;;;;;;8.05;100.00;103527.56;5116135;28;20072;-77
2023/12/15 09:56:18;;;;;;;15.05;2.78;;;;;;;8.07;100.00;103541.63;5097757;28;20096;-76
2023/12/15 09:58:43;;;;;;;20.42;2.90;;;;;;;8.09;100.00;103550.41;5097233;28;20035;-77
2023/12/15 10:01:10;;;;;;;10.73;2.88;;;;;;;8.09;100.00;103545.13;5115461;28;20035;-76
2023/12/15 10:03:35;;;;;;;17.25;2.75;;;;;;;8.10;100.00;103543.31;5097650;28;20015;-76
2023/12/15 10:06:01;;;;;;;14.18;2.90;;;;;;;8.15;100.00;103543.13;5115523;28;20452;-77
2023/12/15 10:08:42;;;;;;;20.27;4.07;;;;;;;8.18;100.00;103550.97;5115452;28;20071;-78
2023/12/15 10:11:07;;;;;;;12.20;2.58;;;;;;;8.18;100.00;103562.47;5115546;28;20024;-78
2023/12/15 10:13:33;;;;;;;15.68;2.67;;;;;;;8.17;100.00;103566.03;5115403;28;20106;-77
2023/12/15 10:15:58;;;;;;;13.07;2.67;;;;;;;8.18;100.00;103562.47;5115266;28;20089;-77
2023/12/15 10:18:24;;;;;;;16.67;2.78;;;;;;;8.15;100.00;103559.06;5114874;28;20023;-76
2023/12/15 10:20:49;;;;;;;14.32;2.95;;;;;;;8.11;100.00;103560.97;5115994;28;20058;-77
2023/12/15 10:23:15;;;;;;;17.77;2.63;;;;;;;8.11;100.00;103569.78;5116236;28;20034;-77
2023/12/15 10:25:47;;;;;;;12.25;2.60;;;;;;;8.16;100.00;103569.59;5116126;28;20133;-76
2023/12/15 10:28:15;;;;;;;13.40;2.58;;;;;;;8.20;100.00;103573.88;5116487;28;20047;-77
2023/12/15 10:30:40;;;;;;;13.10;2.55;;;;;;;8.25;100.00;103573.72;5116341;28;20186;-76
2023/12/15 10:33:07;;;;;;;16.25;2.78;;;;;;;8.28;100.00;103574.47;5116010;28;20051;-76
2023/12/15 10:35:36;;;;;;;10.60;2.67;;;;;;;8.30;100.00;103585.88;5115276;28;20047;-77
2023/12/15 10:38:02;;;;;;;14.60;2.60;;;;;;;8.30;100.00;103593.00;5097308;28;20494;-77
2023/12/15 10:40:27;;;;;;;8.68;2.20;;;;;;;8.30;100.00;103590.34;5115418;28;20032;-77
2023/12/15 10:42:53;;;;;;;16.27;3.35;;;;;;;8.32;100.00;103596.44;5115276;28;20036;-77
2023/12/15 10:45:20;;;;;;;17.42;2.95;;;;;;;8.35;100.00;103604.28;5115088;28;20027;-77
2023/12/15 10:47:48;;;;;;;12.55;2.30;;;;;;;8.40;100.00;103612.06;5115570;28;20039;-77
2023/12/15 10:50:14;;;;;;;11.02;1.88;;;;;;;8.43;100.00;103609.28;5114679;28;20108;-79
2023/12/15 10:52:40;;;;;;;19.38;2.42;;;;;;;8.45;100.00;103610.16;5115011;28;20032;-78
2023/12/15 10:55:06;;;;;;;12.23;2.20;;;;;;;8.47;100.00;103609.16;5115198;28;20454;-79
2023/12/15 10:57:32;;;;;;;10.68;2.30;;;;;;;8.52;100.00;103611.63;5114914;28;20030;-78
2023/12/15 11:00:00;;;;;;;8.10;1.73;;;;;;;8.55;100.00;103621.28;5115285;28;20012;-77
2023/12/15 11:02:28;;;;;;;11.57;2.17;;;;;;;8.57;100.00;103612.34;5096977;28;20038;-79
2023/12/15 11:04:55;;;;;;;9.57;1.80;;;;;;;8.60;100.00;103600.75;5115184;28;20023;-77
2023/12/15 11:07:21;;;;;;;7.25;1.88;;;;;;;8.60;100.00;103598.09;5114723;28;20036;-77